Akranes, Iceland

10:51 PM GMT on May 21, 2019 (GMT +0000)
Grundarhverfi | | Change Station

Elev 13 ft 64.24 °N, 21.83 °W | Updated 1 minute ago

Mostly Cloudy
Mostly Cloudy
48.6 °F
Feels Like 49 °F
N
0
Wind Variable Wind from SSW
Gusts 0.0 mph

Today
High -- | Low -- °F
--% Chance of Precip.
Yesterday
High -- | Low -- °F
Precip. -- in
Pressure 30.24 in
Visibility 6.2 miles
Clouds Scattered Clouds 2800 ft
Mostly Cloudy 5500 ft
Windchill 49 °F
Dew Point 44 °F
Humidity 83%
Rainfall 0.00 in
Snow Depth Not available.
3:53 AM 10:58 PM
Waning Gibbous, 90% visible
METAR BIKF 212230Z 06005KT 9999 SCT028 BKN055 08/07 Q1024
Pressure 30.24 in
Visibility 6.2 miles
Clouds Scattered Clouds 2800 ft
Mostly Cloudy 5500 ft
Windchill 49 °F
Dew Point 44 °F
Humidity 83%
Rainfall 0.00 in
Snow Depth Not available.
3:53 AM 10:58 PM
Waning Gibbous, 90% visible
METAR BIKF 212230Z 06005KT 9999 SCT028 BKN055 08/07 Q1024

Get Severe Weather Alerts

Thanks for signing up!

Be on the lookout for a verification email in your inbox.

You'll start receiving the daily forecast at 6 AM.

×

10-Day Weather Forecast

×

Almanac

Astronomy

May. 21, 2019 Rise Set
Actual Time
Civil Twilight
Nautical Twilight
Astronomical Twilight
Moon
Length of Visible Light
Length of Day
Tomorrow will be .
, % of the Moon is Illuminated

Today's Extremes

Country Highs Country Lows

Community

WunderPhotos

Category 6

Welcome to Category 6. This is the collective home for Weather Underground's featured writeups by Dr. Jeff Masters (right), Bob Henson (left), Chris Burt, and other regular contributors.

Nearby

Air Quality

  Air Quality AQ Index Pollutant
Not available.

Snow Depth

Station Depth Elevation

Earthquake Activity

City Distance Mag. Time & Date
Minimum magnitude displayed is 2.5.

Coastal Water Temperatures

Place Temperature

Stations

Nearby Weather Stations

Station Location Temp. Windchill Dew Point Humidity Wind Precip. Elev Updated Type